createdAt,value
2016-05-02T00:00:47.915Z,1027.87
2016-05-02T00:01:47.933Z,1027.85
2016-05-02T00:02:47.952Z,1027.83
2016-05-02T00:03:47.971Z,1027.87
2016-05-02T00:04:48.598Z,1027.85
2016-05-02T00:06:00.726Z,1027.85
2016-05-02T00:06:48.010Z,1027.82
2016-05-02T00:07:48.012Z,1027.83
2016-05-02T00:09:13.702Z,1027.83
2016-05-02T00:09:57.518Z,1027.83
2016-05-02T00:10:57.504Z,1027.81
2016-05-02T00:11:57.538Z,1027.77
2016-05-02T00:12:57.557Z,1027.79
2016-05-02T00:14:01.278Z,1027.78
2016-05-02T00:15:01.295Z,1027.75
2016-05-02T00:16:01.315Z,1027.78
2016-05-02T00:17:01.334Z,1027.76
2016-05-02T00:18:01.351Z,1027.7
2016-05-02T00:19:01.370Z,1027.7
2016-05-02T00:20:07.684Z,1027.73
2016-05-02T00:21:01.391Z,1027.67
2016-05-02T00:22:20.662Z,1027.66
2016-05-02T00:23:01.412Z,1027.69
2016-05-02T00:24:01.430Z,1027.66
2016-05-02T00:25:01.448Z,1027.71
2016-05-02T00:26:01.467Z,1027.69
2016-05-02T00:27:01.672Z,1027.69
2016-05-02T00:28:01.502Z,1027.73
2016-05-02T00:29:01.505Z,1027.74
2016-05-02T00:30:01.525Z,1027.76
2016-05-02T00:31:01.543Z,1027.69
2016-05-02T00:32:07.811Z,1027.66
2016-05-02T00:33:01.563Z,1027.69
2016-05-02T00:34:01.582Z,1027.64
2016-05-02T00:35:01.599Z,1027.6
2016-05-02T00:36:07.884Z,1027.6
2016-05-02T00:37:01.621Z,1027.59
2016-05-02T00:38:01.640Z,1027.55
2016-05-02T00:39:01.657Z,1027.57
2016-05-02T00:40:01.660Z,1027.55
2016-05-02T00:41:01.678Z,1027.52
2016-05-02T00:42:01.698Z,1027.53
2016-05-02T00:43:01.715Z,1027.49
2016-05-02T00:44:01.718Z,1027.51
2016-05-02T00:45:01.736Z,1027.5
2016-05-02T00:46:08.020Z,1027.47
2016-05-02T00:47:01.773Z,1027.46
2016-05-02T00:48:01.775Z,1027.45
2016-05-02T00:49:01.794Z,1027.43
2016-05-02T00:50:01.797Z,1027.46
2016-05-02T00:51:01.831Z,1027.43
2016-05-02T00:52:01.833Z,1027.4
2016-05-02T00:53:21.058Z,1027.43
2016-05-02T00:54:01.855Z,1027.45
2016-05-02T00:55:27.578Z,1027.43
2016-05-02T00:56:01.891Z,1027.41
2016-05-02T00:57:01.909Z,1027.44
2016-05-02T00:58:08.193Z,1027.43
2016-05-02T00:59:01.946Z,1027.4
2016-05-02T01:00:01.964Z,1027.37
2016-05-02T01:01:01.966Z,1027.39
2016-05-02T01:02:01.985Z,1027.37
2016-05-02T01:03:02.013Z,1027.37
2016-05-02T01:04:02.060Z,1027.42
2016-05-02T01:05:02.138Z,1027.39
2016-05-02T01:06:02.200Z,1027.4
2016-05-02T01:07:21.475Z,1027.39
2016-05-02T01:08:02.287Z,1027.4
2016-05-02T01:09:28.013Z,1027.38
2016-05-02T01:10:21.579Z,1027.4
2016-05-02T01:11:05.532Z,1027.38
2016-05-02T01:12:05.645Z,1027.34
2016-05-02T01:13:05.584Z,1027.31
2016-05-02T01:14:05.607Z,1027.31
2016-05-02T01:15:05.615Z,1027.28
2016-05-02T01:16:05.640Z,1027.26
2016-05-02T01:17:05.664Z,1027.27
2016-05-02T01:18:05.687Z,1027.23
2016-05-02T01:19:05.692Z,1027.24
2016-05-02T01:20:05.727Z,1027.27
2016-05-02T01:21:06.326Z,1027.28
2016-05-02T01:22:06.361Z,1027.28
2016-05-02T01:23:05.757Z,1027.26
2016-05-02T01:24:05.776Z,1027.25
2016-05-02T01:25:05.795Z,1027.21
2016-05-02T01:26:06.002Z,1027.22
2016-05-02T01:27:05.926Z,1027.19
2016-05-02T01:28:05.852Z,1027.2
2016-05-02T01:29:05.902Z,1027.24
2016-05-02T01:30:05.858Z,1027.21
2016-05-02T01:31:05.892Z,1027.19
2016-05-02T01:32:12.178Z,1027.19
2016-05-02T01:33:05.914Z,1027.22
2016-05-02T01:34:05.933Z,1027.21
2016-05-02T01:35:05.951Z,1027.24
2016-05-02T01:36:06.063Z,1027.19
2016-05-02T01:37:05.972Z,1027.21
2016-05-02T01:38:05.975Z,1027.25
2016-05-02T01:39:05.993Z,1027.24
2016-05-02T01:40:06.011Z,1027.24
2016-05-02T01:41:09.170Z,1027.25
2016-05-02T01:42:09.172Z,1027.26
2016-05-02T01:43:09.191Z,1027.27
2016-05-02T01:44:09.210Z,1027.28
2016-05-02T01:45:09.228Z,1027.3
2016-05-02T01:46:09.230Z,1027.31
2016-05-02T01:47:09.249Z,1027.33
2016-05-02T01:48:09.283Z,1027.31
2016-05-02T01:49:09.269Z,1027.31
2016-05-02T01:50:09.288Z,1027.32
2016-05-02T01:51:22.041Z,1027.34
2016-05-02T01:52:09.325Z,1027.33
2016-05-02T01:53:09.343Z,1027.31
2016-05-02T01:54:09.346Z,1027.29
2016-05-02T01:55:09.364Z,1027.28
2016-05-02T01:56:09.382Z,1027.28
2016-05-02T01:57:09.385Z,1027.3
2016-05-02T01:58:09.404Z,1027.33
2016-05-02T01:59:09.421Z,1027.36
2016-05-02T02:00:22.174Z,1027.34
2016-05-02T02:01:09.459Z,1027.35
2016-05-02T02:02:09.461Z,1027.32
2016-05-02T02:03:09.479Z,1027.34
2016-05-02T02:04:09.545Z,1027.32
2016-05-02T02:05:09.500Z,1027.31
2016-05-02T02:06:10.190Z,1027.31
2016-05-02T02:07:09.537Z,1027.32
2016-05-02T02:08:22.289Z,1027.29
2016-05-02T02:09:09.558Z,1027.28
2016-05-02T02:10:09.576Z,1027.28
2016-05-02T02:11:22.328Z,1027.26
2016-05-02T02:12:22.331Z,1027.24
2016-05-02T02:13:09.616Z,1027.22
2016-05-02T02:14:09.634Z,1027.22
2016-05-02T02:15:09.636Z,1027.18
2016-05-02T02:16:09.655Z,1027.19
2016-05-02T02:17:09.673Z,1027.18
2016-05-02T02:18:09.691Z,1027.16
2016-05-02T02:19:09.694Z,1027.13
2016-05-02T02:20:09.713Z,1027.16
2016-05-02T02:21:09.715Z,1027.14
2016-05-02T02:22:09.749Z,1027.13
2016-05-02T02:23:09.752Z,1027.09
2016-05-02T02:24:09.802Z,1027.11
2016-05-02T02:25:09.778Z,1027.09
2016-05-02T02:26:09.796Z,1027.09
2016-05-02T02:28:09.823Z,1027.04
2016-05-02T02:29:09.841Z,1027.01
2016-05-02T02:30:22.593Z,1027.03
2016-05-02T02:31:10.471Z,1027.06
2016-05-02T02:32:09.896Z,1027.01
2016-05-02T02:33:09.899Z,1027.02
2016-05-02T02:34:22.745Z,1027.02
2016-05-02T02:35:09.920Z,1027.01
2016-05-02T02:36:09.937Z,1027.02
2016-05-02T02:37:09.940Z,1026.98
2016-05-02T02:38:10.568Z,1026.99
2016-05-02T02:39:09.977Z,1027.01
2016-05-02T02:40:09.995Z,1027.03
2016-05-02T02:41:09.998Z,1027.04
2016-05-02T02:42:10.017Z,1027
2016-05-02T02:43:10.035Z,1027.03
2016-05-02T02:44:10.053Z,1027.02
2016-05-02T02:45:10.055Z,1027.01
2016-05-02T02:46:22.808Z,1026.99
2016-05-02T02:47:22.827Z,1026.98
2016-05-02T02:48:10.095Z,1026.97
2016-05-02T02:49:10.113Z,1026.98
2016-05-02T02:50:10.116Z,1026.98
2016-05-02T02:51:10.166Z,1026.98
2016-05-02T02:52:10.153Z,1026.98
2016-05-02T02:53:10.374Z,1027.01
2016-05-02T02:54:10.190Z,1026.98
2016-05-02T02:55:10.193Z,1027.03
2016-05-02T02:56:22.945Z,1026.99
2016-05-02T02:57:10.229Z,1026.99
2016-05-02T02:58:10.231Z,1026.97
2016-05-02T02:59:10.249Z,1026.96
2016-05-02T03:00:10.269Z,1026.97
2016-05-02T03:01:23.021Z,1026.94
2016-05-02T03:02:10.289Z,1026.91
2016-05-02T03:03:10.307Z,1026.93
2016-05-02T03:04:10.467Z,1026.91
2016-05-02T03:05:10.345Z,1026.91
2016-05-02T03:06:10.457Z,1026.88
2016-05-02T03:07:10.365Z,1026.91
2016-05-02T03:08:10.478Z,1026.91
2016-05-02T03:09:10.387Z,1026.88
2016-05-02T03:10:10.451Z,1026.88
2016-05-02T03:11:10.423Z,1026.89
2016-05-02T03:12:10.473Z,1026.85
2016-05-02T03:13:10.445Z,1026.87
2016-05-02T03:14:10.447Z,1026.86
2016-05-02T03:15:10.464Z,1026.83
2016-05-02T03:16:10.483Z,1026.85
2016-05-02T03:17:10.502Z,1026.84
2016-05-02T03:18:10.505Z,1026.82
2016-05-02T03:19:10.678Z,1026.81
2016-05-02T03:20:10.541Z,1026.78
2016-05-02T03:21:10.746Z,1026.79
2016-05-02T03:22:10.562Z,1026.79
2016-05-02T03:23:10.580Z,1026.8
2016-05-02T03:24:10.583Z,1026.77
2016-05-02T03:25:10.601Z,1026.77
2016-05-02T03:26:10.619Z,1026.77
2016-05-02T03:27:10.622Z,1026.76
2016-05-02T03:28:10.640Z,1026.74
2016-05-02T03:29:10.659Z,1026.78
2016-05-02T03:30:10.677Z,1026.74
2016-05-02T03:31:10.680Z,1026.69
2016-05-02T03:32:10.698Z,1026.71
2016-05-02T03:33:10.701Z,1026.72
2016-05-02T03:34:10.718Z,1026.75
2016-05-02T03:35:10.737Z,1026.73
2016-05-02T03:36:10.756Z,1026.71
2016-05-02T03:37:10.759Z,1026.66
2016-05-02T03:38:10.776Z,1026.68
2016-05-02T03:39:10.779Z,1026.64
2016-05-02T03:40:10.814Z,1026.69
2016-05-02T03:41:10.816Z,1026.66
2016-05-02T03:42:10.834Z,1026.63
2016-05-02T03:43:10.836Z,1026.62
2016-05-02T03:44:10.870Z,1026.62
2016-05-02T03:45:10.858Z,1026.6
2016-05-02T03:46:10.892Z,1026.62
2016-05-02T03:47:10.895Z,1026.58
2016-05-02T03:48:10.913Z,1026.6
2016-05-02T03:49:10.916Z,1026.65
2016-05-02T03:50:10.933Z,1026.63
2016-05-02T03:51:11.186Z,1026.62
2016-05-02T03:52:10.971Z,1026.66
2016-05-02T03:53:10.974Z,1026.64
2016-05-02T03:54:10.976Z,1026.64
2016-05-02T03:55:10.994Z,1026.6
2016-05-02T03:56:11.013Z,1026.66
2016-05-02T03:57:11.031Z,1026.62
2016-05-02T03:58:11.050Z,1026.63
2016-05-02T03:59:11.052Z,1026.6
2016-05-02T04:00:11.071Z,1026.58
2016-05-02T04:01:11.073Z,1026.56
2016-05-02T04:02:11.091Z,1026.61
2016-05-02T04:03:11.110Z,1026.6
2016-05-02T04:04:11.129Z,1026.61
2016-05-02T04:05:11.146Z,1026.6
2016-05-02T04:06:11.555Z,1026.64
2016-05-02T04:07:11.168Z,1026.62
2016-05-02T04:08:11.170Z,1026.66
2016-05-02T04:09:11.188Z,1026.66
2016-05-02T04:10:11.206Z,1026.62
2016-05-02T04:11:11.225Z,1026.64
2016-05-02T04:12:11.228Z,1026.64
2016-05-02T04:13:11.246Z,1026.64
2016-05-02T04:14:11.264Z,1026.65
2016-05-02T04:15:11.267Z,1026.65
2016-05-02T04:16:11.286Z,1026.7
2016-05-02T04:17:11.303Z,1026.65
2016-05-02T04:18:11.322Z,1026.67
2016-05-02T04:19:11.325Z,1026.67
2016-05-02T04:20:11.342Z,1026.68
2016-05-02T04:21:12.283Z,1026.64
2016-05-02T04:22:11.364Z,1026.68
2016-05-02T04:23:11.382Z,1026.66
2016-05-02T04:24:11.385Z,1026.67
2016-05-02T04:25:11.419Z,1026.68
2016-05-02T04:26:11.421Z,1026.68
2016-05-02T04:27:11.440Z,1026.65
2016-05-02T04:28:17.724Z,1026.65
2016-05-02T04:29:11.460Z,1026.64
2016-05-02T04:30:11.479Z,1026.63
2016-05-02T04:31:11.482Z,1026.63
2016-05-02T04:32:11.499Z,1026.65
2016-05-02T04:33:11.518Z,1026.66
2016-05-02T04:34:11.537Z,1026.65
2016-05-02T04:35:11.540Z,1026.65
2016-05-02T04:36:11.557Z,1026.67
2016-05-02T04:37:11.576Z,1026.67
2016-05-02T04:38:11.595Z,1026.68
2016-05-02T04:39:11.598Z,1026.68
2016-05-02T04:40:11.615Z,1026.67
2016-05-02T04:41:11.633Z,1026.7
2016-05-02T04:42:11.636Z,1026.7
2016-05-02T04:43:11.671Z,1026.71
2016-05-02T04:44:11.673Z,1026.68
2016-05-02T04:45:11.676Z,1026.72
2016-05-02T04:46:11.694Z,1026.69
2016-05-02T04:47:11.806Z,1026.69
2016-05-02T04:48:11.731Z,1026.67
2016-05-02T04:49:11.749Z,1026.68
2016-05-02T04:50:11.767Z,1026.66
2016-05-02T04:51:11.880Z,1026.66
2016-05-02T04:52:11.788Z,1026.68
2016-05-02T04:53:11.791Z,1026.68
2016-05-02T04:54:11.809Z,1026.68
2016-05-02T04:55:11.827Z,1026.71
2016-05-02T04:56:11.846Z,1026.64
2016-05-02T04:57:11.864Z,1026.68
2016-05-02T04:58:11.883Z,1026.67
2016-05-02T04:59:11.885Z,1026.67
2016-05-02T05:00:11.904Z,1026.68
2016-05-02T05:01:11.922Z,1026.71
2016-05-02T05:02:11.924Z,1026.66
2016-05-02T05:03:11.943Z,1026.71
2016-05-02T05:04:12.008Z,1026.7
2016-05-02T05:05:11.979Z,1026.68
2016-05-02T05:06:11.982Z,1026.66
2016-05-02T05:07:12.001Z,1026.69
2016-05-02T05:08:12.019Z,1026.69
2016-05-02T05:09:12.038Z,1026.69
2016-05-02T05:10:12.056Z,1026.71
2016-05-02T05:11:12.074Z,1026.68
2016-05-02T05:12:12.076Z,1026.76
2016-05-02T05:13:12.095Z,1026.76
2016-05-02T05:14:12.113Z,1026.72
2016-05-02T05:15:12.148Z,1026.74
2016-05-02T05:16:12.134Z,1026.73
2016-05-02T05:17:12.262Z,1026.8
2016-05-02T05:18:12.171Z,1026.8
2016-05-02T05:19:12.205Z,1026.87
2016-05-02T05:20:12.192Z,1026.81
2016-05-02T05:21:12.225Z,1026.79
2016-05-02T05:22:12.228Z,1026.8
2016-05-02T05:23:12.247Z,1026.81
2016-05-02T05:24:12.265Z,1026.86
2016-05-02T05:25:12.283Z,1026.83
2016-05-02T05:26:12.302Z,1026.88
2016-05-02T05:27:12.305Z,1026.83
2016-05-02T05:28:12.338Z,1026.85
2016-05-02T05:29:12.357Z,1026.83
2016-05-02T05:30:12.391Z,1026.82
2016-05-02T05:31:12.394Z,1026.84
2016-05-02T05:32:12.458Z,1026.84
2016-05-02T05:33:12.414Z,1026.87
2016-05-02T05:34:12.463Z,1026.84
2016-05-02T05:35:12.482Z,1026.79
2016-05-02T05:36:12.485Z,1026.87
2016-05-02T05:37:12.503Z,1026.87
2016-05-02T05:38:12.521Z,1026.86
2016-05-02T05:39:12.555Z,1026.86
2016-05-02T05:40:12.573Z,1026.89
2016-05-02T05:41:12.593Z,1026.84
2016-05-02T05:42:12.610Z,1026.8
2016-05-02T05:43:12.628Z,1026.84
2016-05-02T05:44:12.662Z,1026.81
2016-05-02T05:45:25.415Z,1026.8
2016-05-02T05:46:12.699Z,1026.86
2016-05-02T05:47:12.717Z,1026.83
2016-05-02T05:48:12.751Z,1026.82
2016-05-02T05:49:12.770Z,1026.85
2016-05-02T05:50:12.804Z,1026.84
2016-05-02T05:51:12.822Z,1026.83
2016-05-02T05:52:12.840Z,1026.83
2016-05-02T05:53:12.858Z,1026.83
2016-05-02T05:54:12.892Z,1026.86
2016-05-02T05:55:12.927Z,1026.81
2016-05-02T05:56:12.945Z,1026.84
2016-05-02T05:57:12.979Z,1026.87
2016-05-02T05:58:12.997Z,1026.87
2016-05-02T05:59:13.030Z,1026.84
2016-05-02T06:00:13.065Z,1026.85
2016-05-02T06:01:13.114Z,1026.86
2016-05-02T06:02:13.102Z,1026.86
2016-05-02T06:03:13.119Z,1026.81
2016-05-02T06:04:13.154Z,1026.83
2016-05-02T06:05:13.172Z,1026.84
2016-05-02T06:06:13.190Z,1026.81
2016-05-02T06:07:13.224Z,1026.84
2016-05-02T06:08:13.243Z,1026.81
2016-05-02T06:09:13.277Z,1026.84
2016-05-02T06:10:13.311Z,1026.87
2016-05-02T06:11:13.329Z,1026.88
2016-05-02T06:12:13.347Z,1026.88
2016-05-02T06:13:13.396Z,1026.87
2016-05-02T06:14:13.415Z,1026.91
2016-05-02T06:15:13.448Z,1026.94
2016-05-02T06:16:13.467Z,1026.9
2016-05-02T06:17:13.501Z,1026.9
2016-05-02T06:18:13.520Z,1026.92
2016-05-02T06:19:13.553Z,1026.92
2016-05-02T06:20:13.587Z,1026.9
2016-05-02T06:21:13.605Z,1026.91
2016-05-02T06:22:13.639Z,1026.92
2016-05-02T06:23:13.663Z,1026.93
2016-05-02T06:24:13.696Z,1026.95
2016-05-02T06:25:13.731Z,1026.92
2016-05-02T06:26:13.749Z,1026.93
2016-05-02T06:27:13.783Z,1026.92
2016-05-02T06:28:13.801Z,1026.94
2016-05-02T06:29:13.835Z,1026.92
2016-05-02T06:30:13.869Z,1026.94
2016-05-02T06:31:13.888Z,1026.93
2016-05-02T06:32:13.921Z,1026.91
2016-05-02T06:33:13.940Z,1026.91
2016-05-02T06:34:13.990Z,1026.88
2016-05-02T06:35:16.663Z,1026.92
2016-05-02T06:36:14.042Z,1026.88
2016-05-02T06:37:14.060Z,1026.82
2016-05-02T06:38:14.110Z,1026.85
2016-05-02T06:39:14.128Z,1026.85
2016-05-02T06:40:14.162Z,1026.8
2016-05-02T06:41:14.196Z,1026.85
2016-05-02T06:42:14.215Z,1026.88
2016-05-02T06:43:14.248Z,1026.88
2016-05-02T06:44:14.282Z,1026.87
2016-05-02T06:45:14.315Z,1026.9
2016-05-02T06:46:14.350Z,1026.91
2016-05-02T06:47:14.477Z,1026.92
2016-05-02T06:48:14.403Z,1026.87
2016-05-02T06:49:14.436Z,1026.89
2016-05-02T06:50:14.470Z,1026.91
2016-05-02T06:51:15.004Z,1026.93
2016-05-02T06:52:14.522Z,1026.89
2016-05-02T06:53:14.555Z,1026.89
2016-05-02T06:54:14.589Z,1026.91
2016-05-02T06:55:14.624Z,1026.9
2016-05-02T06:56:14.642Z,1026.88
2016-05-02T06:57:14.676Z,1026.9
2016-05-02T06:58:14.710Z,1026.9
2016-05-02T06:59:14.744Z,1026.9
2016-05-02T07:00:14.763Z,1026.92
2016-05-02T07:01:14.812Z,1026.87
2016-05-02T07:02:14.846Z,1026.89
2016-05-02T07:03:14.864Z,1026.88
2016-05-02T07:04:14.899Z,1026.86
2016-05-02T07:05:14.932Z,1026.89
2016-05-02T07:06:14.982Z,1026.89
2016-05-02T07:07:15.016Z,1026.91
2016-05-02T07:08:15.018Z,1026.88
2016-05-02T07:09:15.052Z,1026.89
2016-05-02T07:10:15.102Z,1026.89
2016-05-02T07:11:15.120Z,1026.86
2016-05-02T07:12:15.154Z,1026.89
2016-05-02T07:13:15.188Z,1026.88
2016-05-02T07:14:15.222Z,1026.87
2016-05-02T07:15:15.256Z,1026.87
2016-05-02T07:16:15.289Z,1026.88
2016-05-02T07:17:15.324Z,1026.9
2016-05-02T07:18:15.342Z,1026.85
2016-05-02T07:19:15.376Z,1026.85
2016-05-02T07:20:15.409Z,1026.83
2016-05-02T07:21:15.444Z,1026.86
2016-05-02T07:22:15.478Z,1026.84
2016-05-02T07:23:15.511Z,1026.84
2016-05-02T07:24:15.546Z,1026.86
2016-05-02T07:25:15.580Z,1026.87
2016-05-02T07:26:15.614Z,1026.83
2016-05-02T07:27:15.633Z,1026.81
2016-05-02T07:28:15.666Z,1026.79
2016-05-02T07:29:15.700Z,1026.86
2016-05-02T07:30:15.733Z,1026.8
2016-05-02T07:31:15.783Z,1026.75
2016-05-02T07:32:15.801Z,1026.77
2016-05-02T07:33:15.835Z,1026.76
2016-05-02T07:34:15.885Z,1026.78
2016-05-02T07:35:15.904Z,1026.79
2016-05-02T07:36:15.937Z,1026.74
2016-05-02T07:37:15.971Z,1026.75
2016-05-02T07:38:16.004Z,1026.76
2016-05-02T07:39:16.040Z,1026.8
2016-05-02T07:40:16.073Z,1026.75
2016-05-02T07:41:16.107Z,1026.74
2016-05-02T07:42:16.141Z,1026.75
2016-05-02T07:43:16.176Z,1026.78
2016-05-02T07:44:16.209Z,1026.73
2016-05-02T07:45:16.243Z,1026.73
2016-05-02T07:46:16.277Z,1026.75
2016-05-02T07:47:16.311Z,1026.73
2016-05-02T07:48:16.345Z,1026.69
2016-05-02T07:49:16.378Z,1026.68
2016-05-02T07:50:16.412Z,1026.67
2016-05-02T07:51:16.447Z,1026.68
2016-05-02T07:52:16.481Z,1026.64
2016-05-02T07:53:16.498Z,1026.65
2016-05-02T07:54:16.533Z,1026.67
2016-05-02T07:55:16.582Z,1026.58
2016-05-02T07:56:16.616Z,1026.56
2016-05-02T07:57:16.650Z,1026.52
2016-05-02T07:58:16.684Z,1026.47
2016-05-02T07:59:16.718Z,1026.47
2016-05-02T08:00:16.736Z,1026.41
2016-05-02T08:01:16.786Z,1026.4
2016-05-02T08:02:16.804Z,1026.29
2016-05-02T08:03:16.838Z,1026.23
2016-05-02T08:04:16.872Z,1026.21
2016-05-02T08:05:16.905Z,1026.24
2016-05-02T08:06:16.924Z,1026.23
2016-05-02T08:07:16.974Z,1026.28
2016-05-02T08:08:16.993Z,1026.2
2016-05-02T08:09:17.011Z,1026.18
2016-05-02T08:10:17.059Z,1026.19
2016-05-02T08:11:17.094Z,1026.15
2016-05-02T08:12:17.112Z,1026.16
2016-05-02T08:13:17.146Z,1026.21
2016-05-02T08:14:17.165Z,1026.17
2016-05-02T08:15:17.199Z,1026.16
2016-05-02T08:16:17.232Z,1026.13
2016-05-02T08:17:17.250Z,1026.15
2016-05-02T08:18:17.284Z,1026.18
2016-05-02T08:19:17.318Z,1026.17
2016-05-02T08:20:17.337Z,1026.14
2016-05-02T08:21:17.371Z,1026.14
2016-05-02T08:22:17.405Z,1026.14
2016-05-02T08:23:17.422Z,1026.16
2016-05-02T08:24:17.457Z,1026.14
2016-05-02T08:25:17.475Z,1026.11
2016-05-02T08:26:17.494Z,1026.16
2016-05-02T08:27:17.528Z,1026.13
2016-05-02T08:28:17.546Z,1026.1
2016-05-02T08:29:17.580Z,1026.1
2016-05-02T08:30:17.598Z,1026.07
2016-05-02T08:31:17.647Z,1026.07
2016-05-02T08:32:17.666Z,1026.09
2016-05-02T08:33:17.669Z,1026.03
2016-05-02T08:34:17.796Z,1026.04
2016-05-02T08:35:17.721Z,1026.02
2016-05-02T08:36:17.771Z,1026
2016-05-02T08:37:17.788Z,1026.01
2016-05-02T08:38:17.808Z,1026.02
2016-05-02T08:39:17.826Z,1025.98
2016-05-02T08:40:17.859Z,1026
2016-05-02T08:41:17.877Z,1026.04
2016-05-02T08:42:17.912Z,1026.02
2016-05-02T08:43:17.946Z,1025.99
2016-05-02T08:44:17.948Z,1026
2016-05-02T08:45:17.982Z,1025.95
2016-05-02T08:46:18.001Z,1025.98
2016-05-02T08:47:18.082Z,1026.01
2016-05-02T08:48:18.053Z,1025.98
2016-05-02T08:49:18.071Z,1025.92
2016-05-02T08:50:18.105Z,1025.95
2016-05-02T08:51:18.123Z,1025.9
2016-05-02T08:52:18.157Z,1025.87
2016-05-02T08:53:18.176Z,1025.87
2016-05-02T08:54:18.194Z,1025.82
2016-05-02T08:55:18.211Z,1025.82
2016-05-02T08:56:18.606Z,1025.79
2016-05-02T08:57:18.296Z,1025.78
2016-05-02T08:58:18.298Z,1025.77
2016-05-02T08:59:18.333Z,1025.79
2016-05-02T09:00:18.336Z,1025.73
2016-05-02T09:01:18.369Z,1025.74
2016-05-02T09:02:18.388Z,1025.73
2016-05-02T09:03:18.406Z,1025.69
2016-05-02T09:04:18.455Z,1025.71
2016-05-02T09:05:18.458Z,1025.69
2016-05-02T09:06:18.883Z,1025.69
2016-05-02T09:07:18.510Z,1025.71
2016-05-02T09:08:18.529Z,1025.69
2016-05-02T09:09:18.563Z,1025.7
2016-05-02T09:10:18.580Z,1025.66
2016-05-02T09:11:18.599Z,1025.67
2016-05-02T09:12:18.632Z,1025.65
2016-05-02T09:13:18.651Z,1025.68
2016-05-02T09:14:18.670Z,1025.64
2016-05-02T09:15:18.703Z,1025.7
2016-05-02T09:16:18.721Z,1025.67
2016-05-02T09:17:18.756Z,1025.66
2016-05-02T09:18:18.774Z,1025.62
2016-05-02T09:19:18.792Z,1025.59
2016-05-02T09:20:18.826Z,1025.59
2016-05-02T09:21:18.845Z,1025.57
2016-05-02T09:22:18.863Z,1025.59
2016-05-02T09:23:18.897Z,1025.57
2016-05-02T09:24:18.931Z,1025.57
2016-05-02T09:25:18.949Z,1025.59
2016-05-02T09:26:18.968Z,1025.59
2016-05-02T09:27:18.986Z,1025.54
2016-05-02T09:28:31.754Z,1025.54
2016-05-02T09:29:25.304Z,1025.52
2016-05-02T09:30:19.056Z,1025.53
2016-05-02T09:31:19.105Z,1025.48
2016-05-02T09:32:19.108Z,1025.49
2016-05-02T09:33:19.143Z,1025.48
2016-05-02T09:34:19.161Z,1025.53
2016-05-02T09:35:31.929Z,1025.51
2016-05-02T09:36:44.872Z,1025.51
2016-05-02T09:37:19.232Z,1025.51
2016-05-02T09:38:19.249Z,1025.49
2016-05-02T09:39:19.269Z,1025.47
2016-05-02T09:40:19.302Z,1025.45
2016-05-02T09:41:19.320Z,1025.45
2016-05-02T09:42:19.355Z,1025.43
2016-05-02T09:43:32.107Z,1025.42
2016-05-02T09:44:19.406Z,1025.44
2016-05-02T09:45:19.425Z,1025.44
2016-05-02T09:46:19.443Z,1025.43
2016-05-02T09:47:19.462Z,1025.4
2016-05-02T09:48:19.496Z,1025.36
2016-05-02T09:49:19.529Z,1025.4
2016-05-02T09:50:19.548Z,1025.37
2016-05-02T09:51:19.565Z,1025.34
2016-05-02T09:52:32.319Z,1025.35
2016-05-02T09:53:19.618Z,1025.33
2016-05-02T09:54:45.326Z,1025.3
2016-05-02T09:55:19.655Z,1025.28
2016-05-02T09:56:19.689Z,1025.32
2016-05-02T09:57:19.722Z,1025.27
2016-05-02T09:58:19.741Z,1025.26
2016-05-02T09:59:19.759Z,1025.23
2016-05-02T10:00:19.777Z,1025.24
2016-05-02T10:01:19.811Z,1025.25
2016-05-02T10:02:19.830Z,1025.23
2016-05-02T10:03:19.864Z,1025.21
2016-05-02T10:04:19.883Z,1025.17
2016-05-02T10:05:32.650Z,1025.2
2016-05-02T10:06:19.935Z,1025.21
2016-05-02T10:07:19.952Z,1025.22
2016-05-02T10:08:19.971Z,1025.18
2016-05-02T10:09:45.739Z,1025.19
2016-05-02T10:10:29.848Z,1025.19
2016-05-02T10:11:55.628Z,1025.16
2016-05-02T10:12:39.518Z,1025.17
2016-05-02T10:13:39.580Z,1025.17
2016-05-02T10:14:39.631Z,1025.16
2016-05-02T10:15:39.680Z,1025.09
2016-05-02T10:16:39.715Z,1025.09
2016-05-02T10:17:39.764Z,1025.16
2016-05-02T10:18:39.797Z,1025.15
2016-05-02T10:19:39.844Z,1025.11
2016-05-02T10:20:46.142Z,1025.09
2016-05-02T10:21:52.634Z,1025.06
2016-05-02T10:22:59.128Z,1025.05
2016-05-02T10:23:39.956Z,1025.05
2016-05-02T10:24:39.993Z,1025.06
2016-05-02T10:25:40.029Z,1025.04
2016-05-02T10:26:40.034Z,1025.05
2016-05-02T10:27:40.071Z,1025.02
2016-05-02T10:28:46.361Z,1024.96
2016-05-02T10:29:40.111Z,1024.93
2016-05-02T10:30:52.882Z,1024.97
2016-05-02T10:31:40.179Z,1024.94
2016-05-02T10:32:59.452Z,1024.92
2016-05-02T10:33:40.218Z,1024.89
2016-05-02T10:34:40.236Z,1024.9
2016-05-02T10:35:53.007Z,1024.88
2016-05-02T10:36:40.304Z,1024.9
2016-05-02T10:37:59.513Z,1024.88
2016-05-02T10:38:40.341Z,1024.88
2016-05-02T10:40:55.568Z,1024.85
2016-05-02T10:41:55.586Z,1024.86
2016-05-02T10:42:55.605Z,1024.85
2016-05-02T10:43:55.638Z,1024.83
2016-05-02T10:45:01.907Z,1024.8
2016-05-02T10:45:55.674Z,1024.76
2016-05-02T10:46:55.724Z,1024.73
2016-05-02T10:47:55.726Z,1024.73
2016-05-02T10:48:55.746Z,1024.75
2016-05-02T10:49:55.779Z,1024.71
2016-05-02T10:50:55.798Z,1024.73
2016-05-02T10:51:55.815Z,1024.69
2016-05-02T10:52:55.850Z,1024.73
2016-05-02T10:53:55.884Z,1024.72
2016-05-02T10:55:08.636Z,1024.66
2016-05-02T10:55:55.920Z,1024.68
2016-05-02T10:57:21.626Z,1024.65
2016-05-02T10:57:55.973Z,1024.65
2016-05-02T10:58:56.007Z,1024.64
2016-05-02T10:59:56.025Z,1024.61
2016-05-02T11:00:56.059Z,1024.59
2016-05-02T11:01:56.061Z,1024.62
2016-05-02T11:03:02.361Z,1024.62
2016-05-02T11:03:56.130Z,1024.63
2016-05-02T11:05:08.883Z,1024.62
2016-05-02T11:05:56.167Z,1024.59
2016-05-02T11:06:56.200Z,1024.58
2016-05-02T11:07:56.219Z,1024.53
2016-05-02T11:08:56.393Z,1024.52
2016-05-02T11:10:12.349Z,1024.52
2016-05-02T11:11:25.320Z,1024.5
2016-05-02T11:11:59.666Z,1024.52
2016-05-02T11:12:59.686Z,1024.49
2016-05-02T11:13:59.704Z,1024.49
2016-05-02T11:14:59.738Z,1024.43
2016-05-02T11:15:59.755Z,1024.46
2016-05-02T11:16:59.774Z,1024.45
2016-05-02T11:18:25.496Z,1024.42
2016-05-02T11:18:59.842Z,1024.41
2016-05-02T11:19:59.860Z,1024.38
2016-05-02T11:21:06.160Z,1024.41
2016-05-02T11:21:59.912Z,1024.34
2016-05-02T11:23:12.673Z,1024.34
2016-05-02T11:24:00.191Z,1024.32
2016-05-02T11:25:19.194Z,1024.35
2016-05-02T11:26:00.009Z,1024.29
2016-05-02T11:27:19.231Z,1024.27
2016-05-02T11:28:19.264Z,1024.29
2016-05-02T11:29:28.767Z,1024.3
2016-05-02T11:30:03.114Z,1024.22
2016-05-02T11:31:03.131Z,1024.22
2016-05-02T11:32:03.167Z,1024.27
2016-05-02T11:33:04.606Z,1024.23
2016-05-02T11:34:03.234Z,1024.22
2016-05-02T11:35:03.236Z,1024.19
2016-05-02T11:36:03.270Z,1024.16
2016-05-02T11:37:03.539Z,1024.12
2016-05-02T11:38:03.386Z,1024.11
2016-05-02T11:39:03.325Z,1024.07
2016-05-02T11:40:03.578Z,1024.09
2016-05-02T11:41:03.394Z,1024.11
2016-05-02T11:42:04.021Z,1024.08
2016-05-02T11:43:03.585Z,1024.06
2016-05-02T11:44:04.230Z,1024.07
2016-05-02T11:45:16.326Z,1024.04
2016-05-02T11:46:03.625Z,1024.03
2016-05-02T11:47:03.644Z,1024.03
2016-05-02T11:48:03.677Z,1024.01
2016-05-02T11:49:04.258Z,1023.97
2016-05-02T11:50:03.621Z,1023.95
2016-05-02T11:51:22.873Z,1023.96
2016-05-02T11:52:03.720Z,1023.96
2016-05-02T11:53:03.691Z,1023.94
2016-05-02T11:54:13.256Z,1023.92
2016-05-02T11:55:13.306Z,1023.93
2016-05-02T11:56:13.309Z,1023.89
2016-05-02T11:57:13.342Z,1023.9
2016-05-02T11:58:32.564Z,1023.88
2016-05-02T11:59:13.395Z,1023.86
2016-05-02T12:00:39.085Z,1023.85
2016-05-02T12:01:13.431Z,1023.79
2016-05-02T12:02:13.465Z,1023.79
2016-05-02T12:03:13.500Z,1023.81
2016-05-02T12:04:13.518Z,1023.83
2016-05-02T12:05:26.286Z,1023.83
2016-05-02T12:06:13.773Z,1023.81
2016-05-02T12:07:32.948Z,1023.83
2016-05-02T12:08:26.498Z,1023.77
2016-05-02T12:09:39.469Z,1023.76
2016-05-02T12:10:49.161Z,1023.78
2016-05-02T12:11:23.505Z,1023.79